createdAt,value
2018-03-01T00:01:58.316Z,70.40
2018-03-01T00:04:26.080Z,70.50
2018-03-01T00:06:54.151Z,69.90
2018-03-01T00:09:22.220Z,69.20
2018-03-01T00:11:50.184Z,67.30
2018-03-01T00:14:18.051Z,69.40
2018-03-01T00:16:46.123Z,69.20
2018-03-01T00:19:14.197Z,68.30
2018-03-01T00:21:42.262Z,68.90
2018-03-01T00:24:10.330Z,68.70
2018-03-01T00:26:38.298Z,69.10
2018-03-01T00:29:06.371Z,69.20
2018-03-01T00:31:34.135Z,69.80
2018-03-01T00:34:01.896Z,68.80
2018-03-01T00:36:29.663Z,68.30
2018-03-01T00:38:57.726Z,69.10
2018-03-01T00:41:25.492Z,68.50
2018-03-01T00:43:53.265Z,68.60
2018-03-01T00:46:21.322Z,68.60
2018-03-01T00:48:49.392Z,69.00
2018-03-01T00:51:17.471Z,68.80
2018-03-01T00:53:45.532Z,68.60
2018-03-01T00:56:13.295Z,66.50
2018-03-01T00:58:41.060Z,67.80
2018-03-01T01:01:08.824Z,68.10
2018-03-01T01:03:36.891Z,66.70
2018-03-01T01:06:04.962Z,67.30
2018-03-01T01:08:32.724Z,67.70
2018-03-01T01:11:00.412Z,67.70
2018-03-01T01:13:28.253Z,67.90
2018-03-01T01:15:56.013Z,67.50
2018-03-01T01:18:23.774Z,68.00
2018-03-01T01:20:51.498Z,66.40
2018-03-01T01:23:19.305Z,67.10
2018-03-01T01:25:47.092Z,67.80
2018-03-01T01:28:15.750Z,68.50
2018-03-01T01:30:43.484Z,68.10
2018-03-01T01:33:11.274Z,68.90
2018-03-01T01:35:39.039Z,69.10
2018-03-01T01:38:07.004Z,69.30
2018-03-01T01:40:34.726Z,66.70
2018-03-01T01:43:02.533Z,69.40
2018-03-01T01:45:30.291Z,70.50
2018-03-01T01:47:58.363Z,69.80
2018-03-01T01:50:26.151Z,69.70
2018-03-01T01:52:53.887Z,69.60
2018-03-01T01:55:21.961Z,69.80
2018-03-01T01:57:50.033Z,70.30
2018-03-01T02:00:17.790Z,70.20
2018-03-01T02:02:45.906Z,70.50
2018-03-01T02:05:14.546Z,70.00
2018-03-01T02:07:42.311Z,70.00
2018-03-01T02:10:10.082Z,70.90
2018-03-01T02:12:38.141Z,70.50
2018-03-01T02:15:06.214Z,70.40
2018-03-01T02:17:33.973Z,70.40
2018-03-01T02:20:01.741Z,69.60
2018-03-01T02:22:30.420Z,70.10
2018-03-01T02:24:58.184Z,70.20
2018-03-01T02:27:25.951Z,70.20
2018-03-01T02:29:53.712Z,70.50
2018-03-01T02:32:21.387Z,70.40
2018-03-01T02:34:49.042Z,71.10
2018-03-01T02:37:16.965Z,70.10
2018-03-01T02:39:44.631Z,69.50
2018-03-01T02:42:12.861Z,70.00
2018-03-01T02:44:40.517Z,70.60
2018-03-01T02:47:08.258Z,72.20
2018-03-01T02:49:35.918Z,73.50
2018-03-01T02:52:03.796Z,73.00
2018-03-01T02:54:31.417Z,73.50
2018-03-01T02:56:59.037Z,73.40
2018-03-01T02:59:27.297Z,74.40
2018-03-01T03:01:54.924Z,73.90
2018-03-01T03:04:22.573Z,73.90
2018-03-01T03:06:50.194Z,74.10
2018-03-01T03:09:19.556Z,74.40
2018-03-01T03:11:47.429Z,74.40
2018-03-01T03:14:15.050Z,73.80
2018-03-01T03:16:42.704Z,73.70
2018-03-01T03:19:10.367Z,73.50
2018-03-01T03:21:38.022Z,73.20
2018-03-01T03:24:05.637Z,72.90
2018-03-01T03:26:33.887Z,72.90
2018-03-01T03:29:01.769Z,73.70
2018-03-01T03:31:29.407Z,74.00
2018-03-01T03:33:57.073Z,75.70
2018-03-01T03:36:25.352Z,75.70
2018-03-01T03:39:00.370Z,74.70
2018-03-01T03:41:28.353Z,74.60
2018-03-01T03:43:55.966Z,75.00
2018-03-01T03:46:23.617Z,74.30
2018-03-01T03:48:51.332Z,73.20
2018-03-01T03:51:18.996Z,73.20
2018-03-01T03:53:46.609Z,72.90
2018-03-01T03:56:14.235Z,72.90
2018-03-01T03:58:41.885Z,72.70
2018-03-01T04:01:09.542Z,72.20
2018-03-01T04:03:37.165Z,72.20
2018-03-01T04:06:04.857Z,72.90
2018-03-01T04:08:32.991Z,72.40
2018-03-01T04:11:00.607Z,72.40
2018-03-01T04:13:28.262Z,72.30
2018-03-01T04:15:55.907Z,72.60
2018-03-01T04:18:23.562Z,71.90
2018-03-01T04:20:51.177Z,72.10
2018-03-01T04:23:18.833Z,72.00
2018-03-01T04:25:46.454Z,72.10
2018-03-01T04:28:14.117Z,71.90
2018-03-01T04:30:41.737Z,72.10
2018-03-01T04:33:10.142Z,71.40
2018-03-01T04:35:37.822Z,71.80
2018-03-01T04:38:05.441Z,71.10
2018-03-01T04:40:33.098Z,71.00
2018-03-01T04:43:00.797Z,69.20
2018-03-01T04:45:28.449Z,71.30
2018-03-01T04:47:56.238Z,70.70
2018-03-01T04:50:23.861Z,70.60
2018-03-01T04:52:51.535Z,71.40
2018-03-01T04:55:19.391Z,71.30
2018-03-01T04:57:47.010Z,71.60
2018-03-01T05:00:14.665Z,71.40
2018-03-01T05:02:42.626Z,70.80
2018-03-01T05:05:11.080Z,70.70
2018-03-01T05:07:38.745Z,70.80
2018-03-01T05:10:06.905Z,71.00
2018-03-01T05:12:34.529Z,71.70
2018-03-01T05:15:02.146Z,72.00
2018-03-01T05:17:30.601Z,73.60
2018-03-01T05:19:58.582Z,73.60
2018-03-01T05:22:26.918Z,74.00
2018-03-01T05:24:54.571Z,74.70
2018-03-01T05:27:22.233Z,75.30
2018-03-01T05:29:49.858Z,75.60
2018-03-01T05:32:18.206Z,76.00
2018-03-01T05:34:46.565Z,76.20
2018-03-01T05:37:14.185Z,76.40
2018-03-01T05:39:41.802Z,76.50
2018-03-01T05:42:09.533Z,76.30
2018-03-01T05:44:37.207Z,76.50
2018-03-01T05:47:04.837Z,76.60
2018-03-01T05:49:32.452Z,76.30
2018-03-01T05:52:02.968Z,77.70
2018-03-01T05:54:30.594Z,78.30
2018-03-01T05:56:58.250Z,79.60
2018-03-01T05:59:25.869Z,81.00
2018-03-01T06:01:53.534Z,82.20
2018-03-01T06:04:21.154Z,84.90
2018-03-01T06:06:48.800Z,86.30
2018-03-01T06:09:16.594Z,88.70
2018-03-01T06:11:44.470Z,90.50
2018-03-01T06:14:12.123Z,90.70
2018-03-01T06:16:39.802Z,92.10
2018-03-01T06:19:08.217Z,93.50
2018-03-01T06:21:35.877Z,93.60
2018-03-01T06:24:04.118Z,93.80
2018-03-01T06:26:31.782Z,94.50
2018-03-01T06:28:59.858Z,95.00
2018-03-01T06:31:32.723Z,95.10
2018-03-01T06:34:01.454Z,95.50
2018-03-01T06:36:29.150Z,95.50
2018-03-01T06:38:57.353Z,95.10
2018-03-01T06:41:25.071Z,95.10
2018-03-01T06:43:52.730Z,95.30
2018-03-01T06:46:20.509Z,94.80
2018-03-01T06:48:48.162Z,95.60
2018-03-01T06:51:15.785Z,95.60
2018-03-01T06:53:43.481Z,95.50
2018-03-01T06:56:11.142Z,95.50
2018-03-01T06:58:38.798Z,95.10
2018-03-01T07:01:06.424Z,94.70
2018-03-01T07:03:34.089Z,94.30
2018-03-01T07:06:01.707Z,93.70
2018-03-01T07:08:31.691Z,93.20
2018-03-01T07:11:00.374Z,92.90
2018-03-01T07:13:27.990Z,92.80
2018-03-01T07:15:55.638Z,93.10
2018-03-01T07:18:23.255Z,91.80
2018-03-01T07:20:50.913Z,91.90
2018-03-01T07:23:21.727Z,92.00
2018-03-01T07:25:49.343Z,92.00
2018-03-01T07:28:18.002Z,91.20
2018-03-01T07:30:45.668Z,91.20
2018-03-01T07:33:13.530Z,91.10
2018-03-01T07:35:41.190Z,90.90
2018-03-01T07:38:09.208Z,90.30
2018-03-01T07:40:36.865Z,87.90
2018-03-01T07:43:04.481Z,87.90
2018-03-01T07:45:32.171Z,84.80
2018-03-01T07:47:59.798Z,83.30
2018-03-01T07:50:27.464Z,81.30
2018-03-01T07:52:55.133Z,80.40
2018-03-01T07:55:23.509Z,77.90
2018-03-01T07:57:51.140Z,77.40
2018-03-01T08:00:18.790Z,75.30
2018-03-01T08:02:46.453Z,73.50
2018-03-01T08:05:14.079Z,71.90
2018-03-01T08:07:41.734Z,70.40
2018-03-01T08:10:10.121Z,68.50
2018-03-01T08:12:37.810Z,68.50
2018-03-01T08:15:05.434Z,69.10
2018-03-01T08:17:33.091Z,66.00
2018-03-01T08:20:02.357Z,65.90
2018-03-01T08:22:29.974Z,65.90
2018-03-01T08:24:57.628Z,63.40
2018-03-01T08:27:25.277Z,61.20
2018-03-01T08:29:52.932Z,60.80
2018-03-01T08:32:20.574Z,53.70
2018-03-01T08:34:48.205Z,58.20
2018-03-01T08:37:16.168Z,56.70
2018-03-01T08:39:43.846Z,57.10
2018-03-01T08:42:11.462Z,55.80
2018-03-01T08:44:39.110Z,55.40
2018-03-01T08:47:06.826Z,55.30
2018-03-01T08:49:34.730Z,52.30
2018-03-01T08:52:02.351Z,53.00
2018-03-01T08:54:30.690Z,51.70
2018-03-01T08:56:58.302Z,52.00
2018-03-01T08:59:25.958Z,51.30
2018-03-01T09:01:53.579Z,51.00
2018-03-01T09:04:21.195Z,52.00
2018-03-01T09:06:49.619Z,51.80
2018-03-01T09:09:17.305Z,51.80
2018-03-01T09:11:44.969Z,51.40
2018-03-01T09:14:13.479Z,51.10
2018-03-01T09:16:41.885Z,49.40
2018-03-01T09:19:09.537Z,48.30
2018-03-01T09:21:37.154Z,48.20
2018-03-01T09:24:04.801Z,50.60
2018-03-01T09:26:32.410Z,47.90
2018-03-01T09:29:00.082Z,47.50
2018-03-01T09:31:27.760Z,49.00
2018-03-01T09:33:55.560Z,46.30
2018-03-01T09:36:23.217Z,45.40
2018-03-01T09:38:50.829Z,43.50
2018-03-01T09:41:18.498Z,46.20
2018-03-01T09:43:46.103Z,43.00
2018-03-01T09:46:13.752Z,44.40
2018-03-01T09:48:42.077Z,42.80
2018-03-01T09:51:09.887Z,43.70
2018-03-01T09:53:37.646Z,42.80
2018-03-01T09:56:05.296Z,43.30
2018-03-01T09:58:32.943Z,41.00
2018-03-01T10:01:00.611Z,42.80
2018-03-01T10:03:28.255Z,42.70
2018-03-01T10:05:55.906Z,41.20
2018-03-01T10:08:23.522Z,41.30
2018-03-01T10:10:51.177Z,38.50
2018-03-01T10:13:18.807Z,39.80
2018-03-01T10:15:47.193Z,38.40
2018-03-01T10:18:14.817Z,37.80
2018-03-01T10:20:42.473Z,39.20
2018-03-01T10:23:10.136Z,38.50
2018-03-01T10:25:37.763Z,38.10
2018-03-01T10:28:06.162Z,38.10
2018-03-01T10:30:33.777Z,36.50
2018-03-01T10:33:01.637Z,37.40
2018-03-01T10:35:29.298Z,36.30
2018-03-01T10:37:56.950Z,37.30
2018-03-01T10:40:24.670Z,36.10
2018-03-01T10:42:52.331Z,36.70
2018-03-01T10:45:21.467Z,35.80
2018-03-01T10:47:49.355Z,35.70
2018-03-01T10:50:16.987Z,34.10
2018-03-01T10:52:44.656Z,37.40
2018-03-01T10:55:12.321Z,34.00
2018-03-01T10:57:39.929Z,33.00
2018-03-01T11:00:08.032Z,35.20
2018-03-01T11:02:35.697Z,35.10
2018-03-01T11:05:03.472Z,35.40
2018-03-01T11:07:31.127Z,34.50
2018-03-01T11:09:58.749Z,34.90
2018-03-01T11:12:26.404Z,36.30
2018-03-01T11:14:54.805Z,35.20
2018-03-01T11:17:22.474Z,35.10
2018-03-01T11:19:50.098Z,37.20
2018-03-01T11:22:18.803Z,35.20
2018-03-01T11:24:47.425Z,35.10
2018-03-01T11:27:16.819Z,35.00
2018-03-01T11:29:45.491Z,35.60
2018-03-01T11:32:13.302Z,35.40
2018-03-01T11:34:44.722Z,33.60
2018-03-01T11:37:12.359Z,33.80
2018-03-01T11:39:40.015Z,36.10
2018-03-01T11:42:07.642Z,35.90
2018-03-01T11:44:36.017Z,35.70
2018-03-01T11:47:04.451Z,35.10
2018-03-01T11:49:32.066Z,35.20
2018-03-01T11:51:59.734Z,35.60
2018-03-01T11:54:27.437Z,36.10
2018-03-01T11:56:55.093Z,36.40
2018-03-01T11:59:22.747Z,36.80
2018-03-01T12:01:50.401Z,34.40
2018-03-01T12:04:18.815Z,35.80
2018-03-01T12:06:46.466Z,35.60
2018-03-01T12:09:14.230Z,36.00
2018-03-01T12:11:41.886Z,34.40
2018-03-01T12:14:09.512Z,34.80
2018-03-01T12:16:37.162Z,34.60
2018-03-01T12:19:04.810Z,33.90
2018-03-01T12:21:32.474Z,35.00
2018-03-01T12:24:00.852Z,36.00
2018-03-01T12:26:28.507Z,34.70
2018-03-01T12:28:56.157Z,33.40
2018-03-01T12:31:23.777Z,32.40
2018-03-01T12:33:51.550Z,35.20
2018-03-01T12:36:19.706Z,34.90
2018-03-01T12:38:47.354Z,35.10
2018-03-01T12:41:15.020Z,34.80
2018-03-01T12:43:43.622Z,34.10
2018-03-01T12:46:11.986Z,34.50
2018-03-01T12:48:39.657Z,33.20
2018-03-01T12:51:07.757Z,33.50
2018-03-01T12:53:36.141Z,34.70
2018-03-01T12:56:04.695Z,33.90
2018-03-01T12:58:32.309Z,34.40
2018-03-01T13:01:00.718Z,34.30
2018-03-01T13:03:28.382Z,33.60
2018-03-01T13:05:56.155Z,34.70
2018-03-01T13:08:23.801Z,34.20
2018-03-01T13:10:51.474Z,33.70
2018-03-01T13:13:20.597Z,35.30
2018-03-01T13:15:48.211Z,34.70
2018-03-01T13:21:06.179Z,35.40
2018-03-01T13:23:33.862Z,35.90
2018-03-01T13:26:01.534Z,34.50
2018-03-01T13:28:29.605Z,33.20
2018-03-01T13:30:58.784Z,32.80
2018-03-01T13:36:26.269Z,32.80
2018-03-01T13:38:53.898Z,32.10
2018-03-01T13:41:22.377Z,34.30
2018-03-01T13:43:50.127Z,35.60
2018-03-01T13:46:18.265Z,33.30
2018-03-01T13:48:45.926Z,33.10
2018-03-01T13:51:13.598Z,35.80
2018-03-01T13:53:41.265Z,34.50
2018-03-01T13:56:08.921Z,36.60
2018-03-01T13:58:36.582Z,35.70
2018-03-01T14:01:04.210Z,37.10
2018-03-01T14:03:31.883Z,36.70
2018-03-01T14:06:15.730Z,37.90
2018-03-01T14:08:43.573Z,36.70
2018-03-01T14:11:11.214Z,37.00
2018-03-01T14:13:42.814Z,37.40
2018-03-01T14:16:13.269Z,39.30
2018-03-01T14:32:16.455Z,38.80
2018-03-01T14:34:44.078Z,41.30
2018-03-01T14:37:11.760Z,41.40
2018-03-01T14:39:39.394Z,41.00
2018-03-01T14:42:07.206Z,40.70
2018-03-01T14:44:34.823Z,41.90
2018-03-01T14:47:02.484Z,43.40
2018-03-01T14:49:30.100Z,43.00
2018-03-01T14:51:57.750Z,43.40
2018-03-01T14:54:25.789Z,43.20
2018-03-01T14:56:54.962Z,43.70
2018-03-01T14:59:23.532Z,43.20
2018-03-01T15:01:51.525Z,41.10
2018-03-01T15:04:19.227Z,42.20
2018-03-01T15:06:46.847Z,42.60
2018-03-01T15:09:14.493Z,43.00
2018-03-01T15:11:42.110Z,42.00
2018-03-01T15:14:10.046Z,43.30
2018-03-01T15:16:37.672Z,44.40
2018-03-01T15:19:05.330Z,43.00
2018-03-01T15:21:32.941Z,44.60
2018-03-01T15:24:00.709Z,45.40
2018-03-01T15:26:28.361Z,45.10
2018-03-01T15:28:55.973Z,45.40
2018-03-01T15:31:23.767Z,41.50
2018-03-01T15:33:51.532Z,45.50
2018-03-01T15:36:19.186Z,45.30
2018-03-01T15:38:46.811Z,46.80
2018-03-01T15:41:14.512Z,45.20
2018-03-01T15:43:42.189Z,47.10
2018-03-01T15:46:09.865Z,47.00
2018-03-01T15:48:37.493Z,48.20
2018-03-01T15:51:05.186Z,47.70
2018-03-01T15:53:32.801Z,47.70
2018-03-01T15:56:00.420Z,46.60
2018-03-01T15:58:29.086Z,48.50
2018-03-01T16:00:56.783Z,48.80
2018-03-01T16:03:25.137Z,49.50
2018-03-01T16:05:53.394Z,50.40
2018-03-01T16:08:21.801Z,50.90
2018-03-01T16:10:50.224Z,51.10
2018-03-01T16:13:17.884Z,51.10
2018-03-01T16:15:45.498Z,51.60
2018-03-01T16:18:13.151Z,51.20
2018-03-01T16:20:41.596Z,51.20
2018-03-01T16:23:09.533Z,51.20
2018-03-01T16:25:37.929Z,52.00
2018-03-01T16:28:05.692Z,52.60
2018-03-01T16:30:34.154Z,52.70
2018-03-01T16:33:02.141Z,50.90
2018-03-01T16:35:29.807Z,50.40
2018-03-01T16:37:57.459Z,52.60
2018-03-01T16:40:25.110Z,53.10
2018-03-01T16:42:52.798Z,53.50
2018-03-01T16:45:20.463Z,53.70
2018-03-01T16:47:48.082Z,53.70
2018-03-01T16:50:16.449Z,54.50
2018-03-01T16:52:44.057Z,54.60
2018-03-01T16:55:12.020Z,54.50
2018-03-01T16:57:39.634Z,54.50
2018-03-01T17:00:07.288Z,55.40
2018-03-01T17:02:34.938Z,54.80
2018-03-01T17:05:03.583Z,55.40
2018-03-01T17:07:31.345Z,55.40
2018-03-01T17:09:59.007Z,55.50
2018-03-01T17:12:26.884Z,56.10
2018-03-01T17:14:54.634Z,56.50
2018-03-01T17:17:23.332Z,56.90
2018-03-01T17:19:50.948Z,57.00
2018-03-01T17:22:18.630Z,57.00
2018-03-01T17:24:46.299Z,57.70
2018-03-01T17:27:13.966Z,57.50
2018-03-01T17:29:41.624Z,57.40
2018-03-01T17:32:09.241Z,58.30
2018-03-01T17:34:37.096Z,58.80
2018-03-01T17:37:05.205Z,58.50
2018-03-01T17:39:32.849Z,58.10
2018-03-01T17:42:00.497Z,59.20
2018-03-01T17:44:28.148Z,58.90
2018-03-01T17:46:55.762Z,57.90
2018-03-01T17:49:23.404Z,59.30
2018-03-01T17:51:51.164Z,59.70
2018-03-01T17:54:18.818Z,59.50
2018-03-01T17:56:46.440Z,59.90
2018-03-01T17:59:14.940Z,59.70
2018-03-01T18:01:43.463Z,59.30
2018-03-01T18:04:11.425Z,59.80
2018-03-01T18:06:39.298Z,58.80
2018-03-01T18:09:06.951Z,60.20
2018-03-01T18:11:34.607Z,60.20
2018-03-01T18:14:02.235Z,60.90
2018-03-01T18:16:29.906Z,61.00
2018-03-01T18:18:57.518Z,60.40
2018-03-01T18:21:25.936Z,61.00
2018-03-01T18:23:53.557Z,60.90
2018-03-01T18:26:22.022Z,61.50
2018-03-01T18:28:49.900Z,61.80
2018-03-01T18:31:17.518Z,62.10
2018-03-01T18:33:45.180Z,60.50
2018-03-01T18:36:12.972Z,61.70
2018-03-01T18:38:40.589Z,61.50
2018-03-01T18:41:08.251Z,61.80
2018-03-01T18:43:36.581Z,60.80
2018-03-01T18:46:05.548Z,62.50
2018-03-01T18:48:33.197Z,62.30
2018-03-01T18:51:00.852Z,63.10
2018-03-01T18:53:28.462Z,64.20
2018-03-01T18:55:56.225Z,65.00
2018-03-01T18:58:23.838Z,65.70
2018-03-01T19:00:51.457Z,64.60
2018-03-01T19:03:19.114Z,65.00
2018-03-01T19:05:47.527Z,65.10
2018-03-01T19:08:15.414Z,65.20
2018-03-01T19:10:43.729Z,65.40
2018-03-01T19:13:11.384Z,65.60
2018-03-01T19:15:39.256Z,65.70
2018-03-01T19:18:06.870Z,65.90
2018-03-01T19:20:34.526Z,65.60
2018-03-01T19:23:02.188Z,66.20
2018-03-01T19:25:29.973Z,65.90
2018-03-01T19:27:57.634Z,66.40
2018-03-01T19:30:25.291Z,66.50
2018-03-01T19:32:53.042Z,66.40
2018-03-01T19:35:23.881Z,67.00
2018-03-01T19:37:51.879Z,67.10
2018-03-01T19:40:20.249Z,67.60
2018-03-01T19:42:47.898Z,67.50
2018-03-01T19:45:16.277Z,67.40
2018-03-01T19:47:43.926Z,67.60
2018-03-01T19:50:11.586Z,67.70
2018-03-01T19:52:39.195Z,68.00
2018-03-01T19:55:06.987Z,68.20
2018-03-01T19:57:34.859Z,68.00
2018-03-01T20:00:02.470Z,68.10
2018-03-01T20:02:30.122Z,68.50
2018-03-01T20:04:58.681Z,68.20
2018-03-01T20:07:26.354Z,67.40
2018-03-01T20:09:54.737Z,68.40
2018-03-01T20:12:23.125Z,69.10
2018-03-01T20:14:50.787Z,69.00
2018-03-01T20:17:18.441Z,69.00
2018-03-01T20:19:46.098Z,67.80
2018-03-01T20:22:14.486Z,70.40
2018-03-01T20:24:42.145Z,70.40
2018-03-01T20:27:09.966Z,70.30
2018-03-01T20:29:37.726Z,71.10
2018-03-01T20:32:05.349Z,71.40
2018-03-01T20:34:33.048Z,72.60
2018-03-01T20:37:01.509Z,73.90
2018-03-01T20:39:29.129Z,73.80
2018-03-01T20:41:57.550Z,76.10
2018-03-01T20:44:25.230Z,76.40
2018-03-01T20:46:52.885Z,75.20
2018-03-01T20:49:20.505Z,77.20
2018-03-01T20:51:48.294Z,77.70
2018-03-01T20:54:15.905Z,79.10
2018-03-01T20:56:43.802Z,78.70
2018-03-01T20:59:12.334Z,78.70
2018-03-01T21:01:41.006Z,79.30
2018-03-01T21:04:08.669Z,79.30
2018-03-01T21:06:36.293Z,79.60
2018-03-01T21:09:03.909Z,81.80
2018-03-01T21:11:31.570Z,83.10
2018-03-01T21:14:00.225Z,85.50
2018-03-01T21:16:27.847Z,85.40
2018-03-01T21:18:55.531Z,85.30
2018-03-01T21:21:23.187Z,87.40
2018-03-01T21:23:51.024Z,87.80
2018-03-01T21:26:18.697Z,89.70
2018-03-01T21:28:46.489Z,90.80
2018-03-01T21:31:14.865Z,91.10
2018-03-01T21:33:42.524Z,91.70
2018-03-01T21:36:10.203Z,93.60
2018-03-01T21:38:38.153Z,92.60
2018-03-01T21:41:05.771Z,94.00
2018-03-01T21:43:33.462Z,93.60
2018-03-01T21:46:01.449Z,93.20
2018-03-01T21:48:29.299Z,92.80
2018-03-01T21:50:56.953Z,93.50
2018-03-01T21:53:24.647Z,93.20
2018-03-01T21:55:52.294Z,94.00
2018-03-01T21:58:19.909Z,94.50
2018-03-01T22:00:48.053Z,95.60
2018-03-01T22:03:16.434Z,97.30
2018-03-01T22:05:44.868Z,97.10
2018-03-01T22:08:12.538Z,96.40
2018-03-01T22:10:40.357Z,97.80
2018-03-01T22:13:07.977Z,98.40
2018-03-01T22:15:35.826Z,99.50
2018-03-01T22:18:03.902Z,99.90
2018-03-01T22:20:31.521Z,99.90
2018-03-01T22:22:59.146Z,99.90
2018-03-01T22:25:27.570Z,99.90
2018-03-01T22:27:55.253Z,99.90
2018-03-01T22:30:22.902Z,99.90
2018-03-01T22:32:50.580Z,99.90
2018-03-01T22:35:18.194Z,99.90
2018-03-01T22:37:45.806Z,99.90
2018-03-01T22:40:14.291Z,99.90
2018-03-01T22:42:41.961Z,99.90
2018-03-01T22:45:09.609Z,99.90
2018-03-01T22:47:37.221Z,99.90
2018-03-01T22:50:04.906Z,99.90
2018-03-01T22:52:32.522Z,99.90
2018-03-01T22:55:00.533Z,99.90
2018-03-01T22:57:28.905Z,99.90
2018-03-01T22:59:56.563Z,99.90
2018-03-01T23:02:24.246Z,99.90
2018-03-01T23:04:51.907Z,99.90
2018-03-01T23:07:19.540Z,99.90
2018-03-01T23:09:47.195Z,99.90
2018-03-01T23:12:14.813Z,99.90
2018-03-01T23:14:42.754Z,99.90
2018-03-01T23:17:10.574Z,99.90
2018-03-01T23:19:38.235Z,99.90
2018-03-01T23:22:05.850Z,99.90
2018-03-01T23:24:34.325Z,99.90
2018-03-01T23:27:01.977Z,99.90
2018-03-01T23:29:29.605Z,99.90
2018-03-01T23:31:57.945Z,99.90
2018-03-01T23:34:25.570Z,99.90
2018-03-01T23:36:53.189Z,99.90
2018-03-01T23:39:20.841Z,99.90
2018-03-01T23:41:48.767Z,99.90
2018-03-01T23:44:16.455Z,99.90
2018-03-01T23:46:44.109Z,99.90
2018-03-01T23:49:11.762Z,99.90
2018-03-01T23:51:40.185Z,99.90
2018-03-01T23:54:07.810Z,99.90
2018-03-01T23:56:35.458Z,99.90
2018-03-01T23:59:03.122Z,99.90
